Date,TemperatureHighF,TemperatureAvgF,TemperatureLowF,DewpointHighF,DewpointAvgF,DewpointLowF,HumidityHigh,HumidityAvg,HumidityLow,PressureMaxIn,PressureMinIn,WindSpeedMaxMPH,WindSpeedAvgMPH,GustSpeedMaxMPH,PrecipitationSumIn
2013-1-8,40.0,19.3,36.7,34.3,-33.3,-99.9,84,41,79,30.01,29.87,18,-494,18,0.36
2013-1-9,39.8,16.0,33.4,33.3,-43.8,-99.9,86,34,76,30.43,30.00,19,-573,19,0.09
2013-1-10,40.9,11.0,35.7,33.4,-62.6,-99.9,91,20,59,30.41,29.70,19,-710,19,0.07
2013-1-11,-200.0,0.0,200.0,-99.9,-99.9,-99.9,0,0,100,29.72,29.46,0,-999,0,0.00
2013-1-12,26.0,8.5,23.2,19.5,-59.8,-99.9,76,25,70,30.08,29.48,28,-652,28,0.00
2013-1-13,16.2,4.1,12.1,8.8,-70.1,-99.9,75,20,70,30.33,29.99,23,-718,23,0.00
2013-1-14,28.5,8.5,11.0,16.6,-58.4,-99.9,82,25,57,30.50,30.33,13,-633,13,0.00
2013-1-15,32.9,11.0,21.4,18.8,-56.6,-99.9,79,22,51,30.40,30.06,16,-627,16,0.00
2013-1-16,42.6,12.3,32.1,34.6,-58.9,-99.9,81,23,68,30.13,29.83,21,-680,21,0.00
2013-1-17,30.2,9.9,17.8,20.9,-56.7,-99.9,79,24,54,30.43,30.13,16,-623,16,0.00
2013-1-18,53.3,15.3,40.2,36.2,-58.0,-99.9,71,18,50,30.37,29.82,33,-685,33,0.00
2013-1-19,49.4,18.1,37.9,37.3,-45.0,-99.9,84,28,60,30.16,29.74,28,-589,28,0.00
2013-1-20,15.4,4.5,9.6,10.1,-64.0,-99.9,80,25,69,30.37,30.16,18,-659,18,0.00
2013-1-21,-200.0,0.0,200.0,-99.9,-99.9,-99.9,0,0,100,30.37,30.29,0,-999,0,0.00
2013-1-22,-200.0,0.0,200.0,-99.9,-99.9,-99.9,0,0,100,30.37,30.37,0,-999,0,0.00
2013-1-23,-200.0,0.0,200.0,-99.9,-99.9,-99.9,0,0,100,30.37,30.37,0,-999,0,0.00
2013-1-24,-200.0,0.0,200.0,-99.9,-99.9,-99.9,0,0,100,30.37,30.37,0,-999,0,0.00
2013-1-25,33.9,11.0,11.1,21.9,-46.2,-99.9,73,30,54,30.37,30.06,30,-514,30,0.00
2013-1-26,30.8,19.4,5.3,16.8,8.6,-0.1,81,64,46,30.42,30.25,19,6,19,0.00
2013-1-27,38.1,32.9,29.8,36.8,27.4,16.7,95,81,58,30.25,29.76,23,6,23,0.35
2013-1-28,44.9,37.0,33.1,43.7,35.8,31.8,96,95,94,29.93,29.62,26,3,26,0.21
2013-1-29,55.0,40.8,34.2,54.2,39.1,32.1,97,94,90,29.62,29.49,27,8,27,0.12
2013-1-30,34.8,24.0,14.6,32.3,21.6,10.9,100,90,83,29.81,29.38,35,17,35,0.01
2013-1-31,15.6,6.3,0.6,11.5,1.4,-5.5,91,80,75,30.37,29.80,20,14,31,0.00
2013-2-1,19.1,4.4,-5.3,14.7,-1.8,-10.9,83,75,66,30.45,30.10,14,6,19,0.00
2013-2-2,25.1,18.2,13.2,20.6,13.4,8.2,89,81,75,30.19,30.00,20,7,24,0.00
2013-2-3,25.5,20.7,14.3,21.4,15.8,9.5,92,81,74,30.17,29.87,24,8,29,0.00
2013-2-4,26.7,21.7,14.3,21.1,16.8,10.4,87,81,74,30.02,29.81,15,6,22,0.00
2013-2-5,38.0,27.9,17.7,32.1,23.7,14.2,88,84,77,30.13,29.81,19,8,26,0.00
2013-2-6,39.2,29.7,15.5,34.4,26.0,12.8,91,86,80,30.17,29.96,11,4,15,0.00
2013-2-7,37.4,34.8,29.8,35.8,32.5,26.7,94,91,86,30.15,29.91,19,6,26,0.19
2013-2-8,30.7,29.8,28.8,26.7,25.6,24.7,88,84,79,30.37,30.15,15,6,19,0.00
2013-2-9,32.7,30.2,28.5,29.6,27.0,25.1,90,88,85,30.32,29.94,16,10,23,0.00
2013-2-10,45.0,37.9,32.4,43.3,35.2,28.6,95,90,77,29.95,29.28,22,10,32,0.36
2013-2-11,34.4,30.4,26.5,28.9,24.6,21.3,83,79,74,30.10,29.47,35,18,39,0.00
2013-2-12,40.1,31.3,25.3,30.3,25.0,19.1,87,78,65,30.14,29.85,25,6,25,0.00
2013-2-13,43.4,35.1,27.0,35.7,30.0,24.2,90,82,70,29.86,29.63,18,5,18,0.00
2013-2-14,39.0,37.6,36.9,33.2,32.6,31.7,85,82,76,29.65,29.63,15,6,15,0.00
2013-3-15,42.0,42.0,42.0,36.9,36.9,36.9,82,82,82,29.85,29.85,3,2,3,0.00
2013-3-19,29.7,27.0,19.9,21.8,19.7,11.9,83,74,65,30.23,30.17,30,14,30,0.00
2013-3-20,24.4,18.8,13.1,15.6,10.6,5.6,75,70,61,30.27,30.15,33,18,33,0.00
2013-3-21,30.7,21.0,9.4,20.0,12.6,4.8,83,70,56,30.16,30.03,16,2,16,0.02
2013-3-22,37.9,28.0,17.3,26.0,19.2,13.4,87,71,51,30.10,30.03,10,1,10,0.01
2013-3-23,41.5,33.6,26.0,29.4,24.6,21.9,90,70,51,30.13,30.01,15,2,15,0.00
2013-3-24,33.0,31.1,29.7,29.8,28.6,26.5,93,90,82,30.05,29.83,20,6,20,0.05
2013-3-25,36.6,31.3,28.0,28.7,25.8,21.4,92,80,68,30.20,29.91,28,12,28,0.01
2013-3-26,30.1,29.6,28.8,25.8,25.4,24.9,85,84,83,30.22,30.20,17,8,17,0.00
2013-3-27,44.7,37.9,31.0,30.0,27.8,26.4,85,68,52,30.33,30.28,3,0,3,0.00
2013-3-28,50.8,37.5,26.9,36.2,29.5,24.6,92,75,50,30.36,30.25,12,1,12,0.00
2013-3-29,56.7,49.7,39.0,39.5,36.4,33.1,81,61,46,30.30,30.15,13,2,13,0.00
2013-3-30,51.2,43.8,37.4,47.8,40.0,32.1,94,87,75,30.15,29.85,31,7,31,0.05
2013-3-31,48.9,38.8,32.4,42.5,33.4,25.6,95,82,62,30.03,29.83,30,11,30,0.01
2013-4-1,37.9,31.1,25.2,26.0,22.5,19.9,82,71,54,30.27,30.03,29,10,29,0.00
2013-4-2,41.7,32.4,23.8,27.8,23.5,19.3,86,70,51,30.36,30.26,24,6,24,0.00
2013-4-3,46.5,34.2,22.0,26.0,22.0,17.7,95,64,36,30.45,30.26,16,2,16,0.00
2013-4-4,59.0,44.3,30.2,44.6,32.0,22.5,85,63,46,30.26,30.01,21,6,21,0.00
2013-4-5,54.1,44.0,31.2,34.0,29.8,27.0,87,60,38,30.20,29.91,18,4,18,0.00
2013-4-6,64.7,52.4,42.8,51.4,40.1,28.1,86,64,51,29.92,29.51,31,12,31,0.00
2013-4-7,63.1,49.7,39.6,44.8,40.1,35.9,92,71,49,29.94,29.69,17,4,17,0.00
2013-4-8,73.0,59.7,47.9,56.7,50.9,43.5,96,75,49,29.81,29.59,17,3,17,0.85
2013-4-9,57.9,48.9,42.1,52.9,46.3,39.8,94,91,83,29.88,29.64,21,7,21,1.51
2013-4-10,42.0,39.4,37.8,39.8,36.9,34.9,93,91,88,30.02,29.68,26,7,26,0.96
2013-4-11,46.3,41.0,37.2,43.8,38.6,34.1,100,91,86,29.71,29.54,21,3,21,0.29
2013-4-12,39.9,37.2,34.7,35.7,33.1,30.8,93,85,76,29.89,29.55,25,10,25,0.01
2013-4-13,48.1,39.8,32.2,37.1,32.3,27.4,87,75,60,29.99,29.87,21,7,21,0.00
2013-4-14,72.0,51.7,39.6,54.6,44.2,34.5,93,77,51,29.90,29.41,27,7,27,0.60
2013-4-15,52.1,45.0,39.2,49.8,39.1,32.8,92,80,63,30.03,29.57,17,6,22,0.09
2013-4-16,50.7,42.3,32.8,39.0,33.8,29.0,88,73,54,30.23,30.00,20,6,20,0.00
2013-4-17,48.1,44.4,41.0,46.4,40.2,35.1,98,86,62,30.22,29.62,26,5,26,2.63
2013-4-18,53.2,43.2,35.9,51.3,40.9,32.1,95,92,85,29.67,29.38,26,8,26,0.75
2013-4-19,38.4,35.6,32.9,32.1,30.0,27.9,88,80,69,30.02,29.55,38,16,38,0.00
2013-4-20,47.2,35.7,28.8,29.9,26.8,21.6,89,73,38,30.28,30.02,13,3,13,0.00
2013-4-22,65.8,59.3,51.5,50.2,47.5,44.0,90,67,48,30.02,29.90,23,9,23,0.05
2013-4-23,51.5,39.6,36.1,48.7,33.3,28.1,90,78,64,30.07,29.92,26,14,26,0.00
2013-4-24,36.0,33.8,32.8,28.9,28.4,27.8,85,80,73,30.08,30.05,16,9,16,0.00
2013-4-29,80.0,69.5,55.3,60.3,56.4,51.1,87,64,48,29.77,29.55,22,4,22,0.00
2013-4-30,88.7,74.8,61.8,61.3,56.0,48.8,84,56,30,29.81,29.53,26,8,30,0.05
2013-5-1,68.9,56.7,43.8,50.5,45.3,37.1,82,67,49,30.22,29.81,39,14,39,0.00
2013-5-2,43.8,38.3,34.4,37.1,34.3,31.8,91,86,75,30.35,30.18,27,17,35,0.68
2013-5-3,41.4,36.8,33.9,39.8,34.4,31.5,94,91,89,30.28,29.93,23,10,23,1.65
2013-5-4,67.2,55.1,41.1,59.7,51.7,39.2,95,89,69,30.00,29.89,19,4,19,0.34
2013-5-5,73.0,60.0,49.3,60.1,53.3,47.4,94,81,42,30.03,29.94,18,5,18,0.00
2013-5-6,74.1,63.2,51.0,57.0,52.1,48.8,93,70,42,30.03,29.94,12,1,12,0.00
2013-5-7,79.8,65.7,50.7,53.4,49.1,43.1,89,59,29,30.02,29.92,11,1,11,0.00
2013-5-8,78.5,63.8,50.4,60.0,53.3,46.8,92,72,36,29.97,29.89,25,2,25,0.04
2013-5-9,67.3,62.4,58.1,62.1,58.8,55.3,94,88,78,29.89,29.75,19,3,19,0.73
2013-5-10,63.6,55.4,49.2,55.3,50.0,45.6,92,83,65,29.97,29.81,23,6,23,0.07
2013-5-11,56.6,51.8,40.9,49.4,36.1,22.3,92,58,28,30.12,29.87,40,15,40,0.00
2013-5-12,59.9,48.0,35.1,32.6,29.2,25.7,78,51,29,30.21,30.08,25,8,25,0.00
2013-5-13,70.7,50.3,35.5,41.5,34.2,30.2,84,59,30,30.15,29.97,20,2,20,0.00
2013-5-18,83.6,75.5,62.2,66.0,63.0,59.4,92,67,49,29.92,29.75,22,7,22,0.00
2013-5-19,83.0,72.7,63.8,73.4,66.4,60.6,93,81,67,29.82,29.49,32,9,32,1.94
2013-5-20,80.2,70.3,61.8,65.4,61.8,58.0,94,76,54,29.62,29.51,17,6,25,0.22
2013-5-21,72.1,65.6,59.6,60.6,57.8,55.1,92,77,57,29.62,29.50,18,3,18,0.01
2013-5-22,67.5,59.5,55.5,58.0,55.0,51.4,93,85,67,29.75,29.59,19,3,19,0.07
2013-5-23,67.5,60.8,53.6,56.3,49.6,42.9,93,68,44,30.24,29.75,20,7,22,0.02
2013-5-24,68.8,57.6,45.0,48.8,42.9,38.8,88,60,35,30.38,30.17,12,2,22,0.05
2013-5-25,59.0,53.0,49.2,50.0,48.2,46.8,93,84,66,30.27,30.17,14,4,20,1.21
2013-5-26,57.9,53.4,50.0,55.2,50.6,47.1,94,90,84,30.20,29.96,17,3,25,1.71
2013-5-27,70.3,62.1,56.9,65.5,59.6,54.9,95,92,83,30.01,29.72,14,2,21,0.10
2013-5-28,64.1,63.1,62.4,62.1,61.5,60.9,95,94,92,29.73,29.62,4,1,13,0.38
2013-6-3,70.4,67.4,63.3,51.2,50.1,48.6,64,54,46,29.96,29.94,8,6,13,0.00
2013-6-4,63.7,60.1,57.8,57.8,54.6,50.3,87,82,75,30.11,29.94,20,2,20,0.35
2013-6-5,66.1,61.9,58.9,62.2,58.7,53.0,94,89,78,30.00,29.87,21,2,21,0.97
2013-6-6,69.7,62.9,56.9,60.7,57.7,55.2,95,84,65,29.92,29.85,17,4,17,0.01
2013-6-7,69.1,61.5,56.7,57.4,55.7,54.7,93,82,61,29.95,29.87,12,2,12,0.00
2013-6-8,72.8,65.7,54.5,58.9,55.5,52.5,95,71,52,29.90,29.81,16,3,16,0.00
2013-6-9,71.4,67.3,61.4,63.1,59.8,55.8,89,77,67,29.81,29.67,25,7,25,0.00
2013-6-10,78.3,66.9,56.8,63.8,60.6,54.6,95,81,58,29.84,29.71,16,2,16,0.00
2013-6-11,87.1,74.4,61.7,70.5,65.7,59.0,92,76,53,29.86,29.71,16,2,16,0.00
2013-6-12,89.3,78.2,69.0,74.1,69.8,64.7,92,77,56,29.82,29.53,36,7,36,0.20
2013-6-13,81.4,73.7,64.2,66.4,60.6,54.3,91,66,40,29.98,29.70,24,6,24,0.00
2013-6-14,77.2,69.2,61.3,62.1,59.1,55.8,86,71,55,30.05,29.77,25,5,25,0.00
2013-6-15,78.9,73.4,66.1,72.0,67.4,62.0,89,82,71,29.95,29.77,25,5,25,0.25
2013-6-16,86.3,75.6,65.7,68.0,59.9,48.6,94,64,29,29.89,29.83,17,3,17,0.00
2013-6-17,89.6,76.6,60.7,61.5,57.5,54.4,84,55,32,29.90,29.80,17,4,20,0.00
2013-6-18,80.0,71.4,62.7,61.1,58.5,56.6,86,65,47,29.98,29.84,16,1,16,0.00
2013-6-19,84.5,72.8,61.1,61.9,57.9,52.6,80,61,43,30.06,29.94,20,4,20,0.00
2013-6-20,90.0,78.7,66.2,67.3,63.1,58.8,79,61,44,30.01,29.88,25,7,26,0.00
2013-6-21,85.0,76.9,65.0,73.2,68.6,62.5,93,76,66,30.02,29.79,40,9,40,0.99
2013-6-22,90.7,80.7,71.2,76.6,73.2,68.2,91,79,59,29.93,29.77,29,8,29,1.09
2013-6-23,85.0,75.7,68.9,73.3,68.7,64.3,89,79,54,29.95,29.75,27,6,27,0.22
2013-6-24,73.1,69.9,66.9,69.3,66.8,64.8,95,90,83,29.95,29.78,27,5,27,1.57
2013-6-25,87.5,77.0,68.0,76.4,71.3,64.4,94,83,63,29.81,29.65,23,4,23,0.11
2013-6-26,86.3,76.7,66.1,77.6,71.0,63.4,93,83,70,29.74,29.62,27,2,27,0.72
2013-6-27,85.0,77.0,68.6,72.7,67.4,62.6,88,73,55,29.81,29.73,24,5,24,0.00
2013-6-28,82.0,74.5,68.1,63.8,61.4,59.6,80,65,48,29.78,29.66,31,11,31,0.00
2013-6-29,73.7,67.5,64.2,66.6,62.3,59.4,92,84,70,29.82,29.64,26,8,26,0.06
2013-6-30,78.3,69.3,61.9,60.7,56.5,51.8,87,65,41,30.01,29.82,19,5,19,0.00
2013-7-1,79.4,69.6,57.1,60.4,54.9,50.5,88,62,39,30.08,30.01,18,2,18,0.00
2013-7-2,83.0,70.9,58.2,65.5,58.6,-99.9,90,68,44,30.07,29.96,17,1,17,0.06
2013-7-3,80.0,70.3,59.9,59.5,55.6,50.9,83,62,37,30.02,29.93,18,0,18,0.00
2013-7-4,85.4,73.4,60.0,62.5,58.1,53.9,82,61,39,30.00,29.91,21,2,21,0.00
2013-7-5,87.4,75.8,62.6,65.0,61.8,58.1,87,64,41,29.97,29.87,23,5,23,0.00
2013-7-6,89.5,78.0,65.5,68.9,65.6,61.9,89,68,45,29.93,29.83,18,6,18,0.00
2013-7-7,91.2,80.0,68.4,71.3,68.3,65.0,89,69,48,29.88,29.80,24,7,24,0.00
2013-7-8,91.1,82.6,75.7,76.3,72.3,67.6,85,72,59,29.89,29.81,19,2,19,0.00
2013-7-9,82.4,76.4,73.4,76.7,72.9,70.8,93,89,79,29.90,29.82,25,3,25,0.48
2013-7-25,85.0,77.9,66.4,67.4,65.0,62.5,94,67,49,30.01,29.89,29,5,29,1.88
2013-7-26,75.3,68.9,61.9,69.0,62.3,56.4,94,81,58,29.97,29.87,25,7,25,0.38
2013-7-27,66.7,60.2,52.8,53.5,50.5,47.7,88,71,55,30.00,29.92,22,7,22,0.00
2013-7-28,69.8,61.0,51.8,57.0,52.6,48.8,91,75,59,30.03,29.88,17,4,17,0.00
2013-7-29,76.0,64.3,49.9,60.0,54.1,47.6,93,72,48,30.10,30.02,13,1,13,0.00
2013-7-30,68.1,66.6,64.6,64.0,62.0,57.9,92,85,73,30.06,29.99,14,0,14,0.04
2013-7-31,79.7,70.8,62.9,68.7,64.8,60.8,95,82,63,30.04,29.94,14,2,14,0.00
2013-8-1,83.7,71.2,59.0,68.8,62.0,55.8,93,75,49,30.02,29.83,20,1,20,0.08
2013-8-2,80.8,70.5,63.8,69.0,64.3,61.0,92,82,59,29.95,29.81,15,1,15,0.06
2013-8-3,77.5,68.1,58.2,63.4,59.1,55.3,93,75,50,30.12,29.95,14,1,14,0.01
2013-8-4,79.1,68.2,54.2,61.5,56.7,51.8,94,70,46,30.17,30.01,10,0,10,0.00
2013-8-5,79.6,69.2,60.4,72.1,64.6,56.2,92,85,77,30.01,29.77,36,4,36,0.11
2013-8-6,88.0,76.5,63.1,74.7,69.6,61.3,96,81,57,29.82,29.71,15,1,15,0.00
2013-8-7,77.3,72.0,64.9,69.1,65.3,59.9,92,80,64,29.94,29.72,21,4,21,0.00
2013-8-8,79.5,69.1,56.8,66.0,61.1,54.3,93,77,55,29.97,29.91,10,0,10,0.00
2013-8-9,78.3,69.6,60.3,68.6,62.3,57.7,93,79,50,30.06,29.93,16,2,16,0.00
2013-8-10,78.4,68.3,54.4,63.7,58.5,51.1,91,73,51,30.15,30.05,15,0,15,0.00
2013-8-11,82.5,72.6,63.1,69.1,64.3,59.0,89,76,60,30.07,29.92,13,2,13,0.02
2013-8-12,80.0,71.0,62.3,68.8,63.6,56.6,94,79,54,29.98,29.90,16,2,16,0.02
2013-8-13,73.8,64.9,54.3,60.9,55.0,49.6,93,72,46,30.13,29.97,16,1,16,0.00
2013-8-14,54.0,51.5,49.8,49.5,48.2,46.7,91,89,85,30.15,30.13,0,0,0,0.00
2013-8-15,76.6,70.7,57.2,58.4,54.8,51.4,87,59,43,30.11,30.05,11,1,11,0.00
2013-8-16,78.9,65.5,50.1,60.5,55.0,47.6,93,72,45,30.16,30.09,9,0,9,0.00
2013-8-17,81.8,67.8,52.7,62.5,56.3,49.9,93,70,43,30.18,30.08,13,0,13,0.00
2013-8-18,81.0,67.7,52.5,62.9,57.5,49.8,93,72,46,30.16,30.02,13,1,13,0.00
2013-8-19,83.3,70.3,57.2,67.4,61.7,54.0,91,76,47,30.04,29.94,14,1,14,0.00
2013-8-20,87.8,75.8,64.6,71.4,66.6,61.3,89,75,55,29.98,29.89,23,5,23,0.00
2013-8-21,89.0,77.7,66.8,74.8,69.6,63.5,90,77,55,29.95,29.87,20,3,20,0.00
2013-8-22,79.6,73.6,67.7,70.4,68.4,64.7,91,84,73,30.04,29.92,12,0,12,0.02
2013-8-23,83.9,72.4,60.5,69.1,64.8,58.8,96,79,57,30.10,30.01,15,2,15,0.00
2013-8-24,87.9,76.5,65.3,75.0,68.4,60.3,85,76,63,30.12,30.01,19,4,19,0.00
2013-8-25,91.2,79.5,68.1,74.4,69.4,63.1,91,73,54,30.12,30.00,20,4,20,0.00
2013-8-26,94.7,80.4,66.9,77.1,70.3,62.2,91,73,52,30.05,29.88,13,2,15,0.00
2013-8-27,95.2,82.6,72.0,76.0,71.7,67.7,89,71,52,29.90,29.76,16,2,16,0.00
2013-8-28,94.3,82.3,72.8,80.8,74.4,68.7,88,78,59,29.93,29.82,10,1,10,0.00
2013-8-29,94.0,81.7,72.7,77.0,73.4,70.2,94,78,49,29.97,29.85,12,1,12,0.00
2013-8-30,96.8,83.7,73.0,79.9,75.0,71.0,94,77,46,29.85,29.69,9,1,9,0.00
2013-8-31,85.2,76.4,69.1,74.1,70.9,66.2,93,84,66,29.77,29.69,16,0,16,0.22
2013-9-1,82.0,73.9,63.4,72.9,66.0,59.4,95,78,49,29.86,29.69,24,5,24,0.00
2013-9-2,73.5,64.4,55.1,59.7,56.6,51.3,93,77,56,30.00,29.86,22,3,22,0.00
2013-9-3,77.8,61.9,46.8,59.1,53.4,44.6,95,76,45,30.08,29.99,10,0,15,0.01
2013-9-4,87.5,70.8,53.9,70.4,60.6,50.5,91,72,49,30.09,30.00,3,0,7,0.00
2013-9-5,88.8,76.1,63.8,72.3,66.8,60.6,92,75,56,30.12,30.05,11,0,11,0.00
2013-9-6,89.5,75.5,63.3,66.9,63.4,59.7,89,68,42,30.09,29.89,17,5,17,0.00
2013-9-7,93.3,78.4,66.4,74.2,67.7,60.6,85,71,49,29.90,29.78,18,1,18,0.00
2013-9-8,81.8,75.2,72.3,71.1,69.2,67.4,89,82,69,29.92,29.81,19,1,19,0.00
2013-9-9,99.6,82.4,69.4,73.4,68.3,63.8,95,67,35,29.81,29.69,18,2,18,0.00
2013-9-10,96.8,81.8,69.5,69.6,65.5,61.8,78,60,36,29.92,29.77,22,2,22,0.00
2013-9-11,86.5,76.8,67.2,67.5,65.5,60.9,85,69,50,30.01,29.91,22,1,22,0.01
2013-9-12,76.8,67.5,58.6,61.0,54.3,48.6,90,65,39,30.11,29.98,23,6,23,0.00